createdAt,value
2023-05-16T00:01:52.425Z,72.94
2023-05-16T00:04:21.578Z,73.05
2023-05-16T00:06:49.838Z,73.06
2023-05-16T00:09:20.594Z,73.00
2023-05-16T00:11:48.712Z,73.03
2023-05-16T00:14:17.233Z,73.08
2023-05-16T00:16:45.812Z,73.14
2023-05-16T00:19:17.195Z,73.10
2023-05-16T00:21:45.086Z,73.17
2023-05-16T00:24:12.858Z,73.19
2023-05-16T00:26:40.782Z,73.07
2023-05-16T00:29:09.262Z,73.22
2023-05-16T00:31:37.670Z,73.26
2023-05-16T00:34:08.716Z,73.15
2023-05-16T00:36:36.594Z,73.23
2023-05-16T00:39:04.434Z,73.22
2023-05-16T00:41:34.451Z,73.27
2023-05-16T00:44:02.427Z,73.34
2023-05-16T00:46:30.841Z,73.45
2023-05-16T00:48:59.143Z,73.46
2023-05-16T00:51:27.007Z,73.33
2023-05-16T00:53:56.983Z,73.40
2023-05-16T00:56:25.169Z,73.34
2023-05-16T00:58:52.950Z,73.31
2023-05-16T01:01:25.600Z,73.24
2023-05-16T01:03:53.956Z,73.36
2023-05-16T01:06:22.078Z,73.30
2023-05-16T01:08:51.152Z,73.33
2023-05-16T01:11:33.453Z,73.31
2023-05-16T01:14:24.469Z,73.37
2023-05-16T01:16:58.367Z,73.37
2023-05-16T01:19:33.273Z,73.39
2023-05-16T01:22:17.319Z,73.32
2023-05-16T01:25:10.654Z,73.32
2023-05-16T01:27:39.292Z,73.40
2023-05-16T01:30:16.961Z,73.37
2023-05-16T01:32:46.041Z,73.44
2023-05-16T01:35:17.590Z,73.38
2023-05-16T01:37:52.906Z,73.51
2023-05-16T01:40:35.338Z,73.48
2023-05-16T01:43:09.465Z,73.51
2023-05-16T01:48:25.899Z,73.33
2023-05-16T01:50:57.637Z,73.49
2023-05-16T01:53:34.212Z,73.55
2023-05-16T01:56:02.915Z,73.49
2023-05-16T01:58:35.168Z,73.62
2023-05-16T02:01:05.773Z,73.50
2023-05-16T02:03:35.126Z,73.61
2023-05-16T02:06:03.063Z,73.66
2023-05-16T02:08:31.784Z,73.67
2023-05-16T02:10:59.779Z,73.70
2023-05-16T02:13:27.956Z,73.57
2023-05-16T02:15:55.764Z,73.51
2023-05-16T02:18:23.820Z,73.54
2023-05-16T02:20:52.039Z,73.56
2023-05-16T02:23:19.818Z,73.57
2023-05-16T02:25:47.560Z,73.61
2023-05-16T02:28:15.759Z,73.61
2023-05-16T02:30:43.555Z,73.55
2023-05-16T02:33:11.891Z,73.64
2023-05-16T02:35:39.714Z,73.73
2023-05-16T02:38:07.647Z,73.71
2023-05-16T02:40:35.632Z,73.67
2023-05-16T02:43:03.988Z,73.77
2023-05-16T02:45:32.028Z,73.80
2023-05-16T02:47:59.898Z,73.89
2023-05-16T02:50:27.696Z,73.90
2023-05-16T02:52:55.559Z,73.88
2023-05-16T02:55:23.317Z,73.89
2023-05-16T02:57:52.518Z,73.96
2023-05-16T03:00:21.311Z,73.88
2023-05-16T03:02:49.424Z,73.98
2023-05-16T03:05:17.572Z,73.97
2023-05-16T03:07:45.454Z,74.04
2023-05-16T03:10:13.257Z,74.17
2023-05-16T03:12:40.985Z,74.16
2023-05-16T03:15:09.415Z,74.15
2023-05-16T03:17:37.183Z,74.25
2023-05-16T03:20:09.125Z,74.26
2023-05-16T03:22:37.444Z,74.36
2023-05-16T03:25:05.856Z,74.28
2023-05-16T03:27:33.636Z,74.43
2023-05-16T03:30:01.347Z,74.51
2023-05-16T03:32:29.110Z,74.41
2023-05-16T03:34:56.997Z,74.42
2023-05-16T03:37:26.086Z,74.53
2023-05-16T03:39:55.943Z,74.43
2023-05-16T03:42:32.381Z,74.47
2023-05-16T03:45:01.673Z,74.57
2023-05-16T03:47:31.437Z,74.59
2023-05-16T03:49:59.208Z,74.67
2023-05-16T03:52:27.164Z,74.81
2023-05-16T03:54:54.976Z,74.79
2023-05-16T03:57:22.994Z,74.76
2023-05-16T03:59:50.785Z,74.72
2023-05-16T04:02:18.968Z,74.82
2023-05-16T04:04:47.473Z,74.78
2023-05-16T04:07:15.744Z,74.65
2023-05-16T04:09:58.921Z,74.58
2023-05-16T04:12:27.214Z,74.56
2023-05-16T04:14:57.671Z,74.58
2023-05-16T04:17:28.183Z,74.64
2023-05-16T04:19:56.566Z,74.70
2023-05-16T04:22:24.534Z,74.71
2023-05-16T04:24:52.320Z,74.72
2023-05-16T04:27:23.298Z,74.82
2023-05-16T04:33:17.009Z,74.94
2023-05-16T04:35:48.722Z,74.93
2023-05-16T04:38:17.003Z,74.82
2023-05-16T04:40:44.967Z,74.79
2023-05-16T04:43:13.209Z,74.73
2023-05-16T04:45:42.899Z,74.73
2023-05-16T04:48:12.021Z,74.76
2023-05-16T04:50:39.756Z,75.05
2023-05-16T04:53:07.568Z,75.90
2023-05-16T04:55:35.455Z,76.43
2023-05-16T04:58:03.799Z,76.04
2023-05-16T05:00:32.173Z,75.29
2023-05-16T05:03:00.480Z,74.72
2023-05-16T05:05:28.456Z,74.50
2023-05-16T05:07:58.515Z,74.44
2023-05-16T05:10:32.070Z,74.38
2023-05-16T05:13:00.434Z,74.33
2023-05-16T05:15:28.344Z,74.21
2023-05-16T05:17:56.387Z,74.20
2023-05-16T05:20:24.817Z,74.22
2023-05-16T05:22:57.398Z,74.14
2023-05-16T05:25:26.029Z,74.12
2023-05-16T05:27:54.325Z,73.99
2023-05-16T05:30:22.102Z,73.75
2023-05-16T05:32:50.095Z,73.84
2023-05-16T05:35:18.156Z,73.75
2023-05-16T05:37:46.428Z,73.74
2023-05-16T05:40:14.658Z,73.71
2023-05-16T05:42:45.398Z,73.72
2023-05-16T05:45:16.319Z,73.70
2023-05-16T05:47:44.368Z,73.59
2023-05-16T05:50:13.120Z,73.47
2023-05-16T05:52:40.988Z,73.32
2023-05-16T05:55:09.410Z,73.32
2023-05-16T05:57:37.836Z,73.37
2023-05-16T06:00:07.957Z,73.34
2023-05-16T06:02:36.168Z,73.18
2023-05-16T06:05:04.667Z,73.17
2023-05-16T06:07:32.492Z,73.01
2023-05-16T06:10:05.290Z,72.95
2023-05-16T06:12:33.889Z,72.99
2023-05-16T06:15:04.645Z,72.89
2023-05-16T06:17:32.618Z,72.68
2023-05-16T06:20:00.432Z,72.65
2023-05-16T06:22:28.776Z,72.71
2023-05-16T06:24:57.689Z,72.69
2023-05-16T06:27:25.728Z,72.68
2023-05-16T06:29:53.639Z,72.46
2023-05-16T06:32:24.623Z,72.66
2023-05-16T06:34:52.950Z,72.77
2023-05-16T06:37:26.615Z,72.65
2023-05-16T06:40:00.542Z,72.48
2023-05-16T06:42:28.377Z,72.49
2023-05-16T06:44:56.183Z,72.36
2023-05-16T06:47:24.429Z,72.10
2023-05-16T06:49:53.498Z,72.05
2023-05-16T06:52:25.655Z,72.17
2023-05-16T06:54:53.721Z,72.08
2023-05-16T06:57:21.653Z,71.74
2023-05-16T06:59:49.472Z,71.69
2023-05-16T07:02:17.793Z,71.67
2023-05-16T07:04:46.724Z,71.58
2023-05-16T07:07:15.366Z,71.55
2023-05-16T07:09:43.689Z,71.31
2023-05-16T07:12:11.674Z,71.15
2023-05-16T07:14:41.145Z,71.19
2023-05-16T07:17:09.581Z,71.06
2023-05-16T07:19:37.887Z,70.97
2023-05-16T07:22:05.789Z,71.02
2023-05-16T07:24:33.595Z,70.70
2023-05-16T07:27:01.388Z,70.64
2023-05-16T07:29:30.522Z,70.60
2023-05-16T07:31:59.591Z,70.78
2023-05-16T07:34:28.053Z,70.61
2023-05-16T07:36:55.849Z,70.40
2023-05-16T07:39:23.629Z,70.37
2023-05-16T07:41:51.557Z,70.27
2023-05-16T07:44:19.483Z,70.09
2023-05-16T07:46:47.690Z,70.05
2023-05-16T07:49:16.333Z,69.99
2023-05-16T07:51:44.391Z,69.68
2023-05-16T07:54:12.130Z,69.57
2023-05-16T07:56:39.990Z,69.61
2023-05-16T07:59:08.078Z,69.66
2023-05-16T08:01:37.567Z,69.64
2023-05-16T08:04:05.967Z,69.50
2023-05-16T08:06:34.798Z,69.34
2023-05-16T08:09:02.777Z,69.05
2023-05-16T08:11:30.694Z,68.97
2023-05-16T08:13:58.519Z,68.75
2023-05-16T08:16:26.833Z,68.58
2023-05-16T08:18:55.635Z,68.49
2023-05-16T08:21:23.696Z,68.43
2023-05-16T08:23:51.856Z,67.93
2023-05-16T08:26:19.605Z,67.76
2023-05-16T08:28:48.027Z,67.91
2023-05-16T08:31:16.716Z,67.85
2023-05-16T08:33:45.231Z,67.73
2023-05-16T08:36:13.239Z,67.84
2023-05-16T08:38:41.144Z,67.55
2023-05-16T08:41:08.899Z,67.42
2023-05-16T08:43:36.900Z,67.10
2023-05-16T08:46:08.355Z,66.57
2023-05-16T08:48:37.411Z,66.71
2023-05-16T08:51:08.219Z,66.62
2023-05-16T08:53:43.284Z,66.75
2023-05-16T08:56:14.274Z,66.19
2023-05-16T08:58:42.204Z,66.02
2023-05-16T09:01:10.843Z,66.04
2023-05-16T09:03:39.670Z,66.10
2023-05-16T09:06:08.454Z,66.03
2023-05-16T09:08:36.930Z,66.04
2023-05-16T09:11:05.524Z,65.76
2023-05-16T09:13:33.389Z,65.74
2023-05-16T09:16:19.058Z,65.57
2023-05-16T09:18:55.574Z,65.48
2023-05-16T09:21:35.276Z,65.27
2023-05-16T09:24:08.201Z,65.15
2023-05-16T09:26:38.543Z,65.04
2023-05-16T09:29:14.190Z,64.77
2023-05-16T09:31:42.932Z,64.64
2023-05-16T09:34:12.932Z,64.46
2023-05-16T09:36:42.890Z,64.44
2023-05-16T09:39:15.724Z,64.29
2023-05-16T09:41:44.009Z,63.89
2023-05-16T09:44:13.082Z,63.90
2023-05-16T09:46:41.420Z,64.15
2023-05-16T09:49:13.056Z,63.84
2023-05-16T09:51:41.608Z,63.60
2023-05-16T09:54:10.088Z,63.15
2023-05-16T09:56:52.290Z,63.39
2023-05-16T09:59:20.119Z,62.97
2023-05-16T10:01:49.226Z,63.15
2023-05-16T10:04:17.290Z,62.63
2023-05-16T10:06:46.371Z,62.21
2023-05-16T10:09:17.089Z,62.42
2023-05-16T10:11:45.271Z,62.19
2023-05-16T10:14:17.912Z,62.16
2023-05-16T10:16:48.945Z,62.24
2023-05-16T10:19:21.824Z,62.20
2023-05-16T10:21:55.436Z,62.00
2023-05-16T10:24:29.717Z,61.68
2023-05-16T10:26:57.933Z,61.29
2023-05-16T10:29:27.014Z,61.77
2023-05-16T10:31:55.388Z,61.38
2023-05-16T10:34:23.509Z,61.32
2023-05-16T10:36:52.451Z,61.26
2023-05-16T10:39:21.445Z,61.11
2023-05-16T10:41:49.559Z,60.72
2023-05-16T10:44:17.855Z,60.60
2023-05-16T10:46:48.339Z,60.82
2023-05-16T10:49:21.346Z,60.52
2023-05-16T10:52:07.616Z,60.29
2023-05-16T10:54:37.432Z,60.37
2023-05-16T10:57:26.186Z,60.33
2023-05-16T10:59:57.268Z,60.34
2023-05-16T11:02:29.578Z,60.18
2023-05-16T11:04:59.858Z,60.06
2023-05-16T11:07:34.713Z,60.10
2023-05-16T11:10:05.918Z,60.13
2023-05-16T11:12:52.609Z,59.62
2023-05-16T11:15:32.448Z,59.68
2023-05-16T11:18:50.486Z,59.65
2023-05-16T11:21:18.348Z,59.05
2023-05-16T11:24:26.155Z,59.31
2023-05-16T11:26:53.951Z,59.39
2023-05-16T11:29:22.455Z,59.27
2023-05-16T11:31:51.982Z,59.19
2023-05-16T11:34:19.970Z,59.23
2023-05-16T11:36:48.294Z,58.97
2023-05-16T11:39:16.647Z,58.93
2023-05-16T11:41:44.593Z,58.77
2023-05-16T11:44:13.025Z,58.46
2023-05-16T11:46:41.642Z,58.46
2023-05-16T11:49:10.371Z,58.29
2023-05-16T11:51:43.381Z,58.47
2023-05-16T11:54:13.056Z,58.27
2023-05-16T11:56:42.893Z,58.12
2023-05-16T11:59:11.682Z,58.04
2023-05-16T12:01:40.590Z,57.85
2023-05-16T12:04:13.150Z,57.85
2023-05-16T12:06:47.786Z,57.65
2023-05-16T12:09:18.396Z,57.53
2023-05-16T12:11:46.407Z,57.55
2023-05-16T12:14:14.628Z,57.35
2023-05-16T12:16:44.056Z,57.30
2023-05-16T12:19:14.234Z,57.04
2023-05-16T12:21:42.749Z,57.34
2023-05-16T12:24:12.997Z,56.94
2023-05-16T12:26:43.649Z,56.85
2023-05-16T12:29:11.696Z,56.94
2023-05-16T12:31:41.732Z,56.82
2023-05-16T12:34:20.634Z,56.65
2023-05-16T12:36:53.903Z,56.76
2023-05-16T12:39:25.737Z,56.36
2023-05-16T12:41:53.501Z,56.27
2023-05-16T12:44:23.724Z,56.51
2023-05-16T12:46:55.244Z,56.24
2023-05-16T12:49:23.356Z,56.06
2023-05-16T12:51:57.430Z,56.10
2023-05-16T12:54:25.592Z,55.83
2023-05-16T12:56:53.538Z,55.91
2023-05-16T12:59:22.240Z,55.88
2023-05-16T13:01:51.042Z,55.72
2023-05-16T13:04:20.544Z,55.82
2023-05-16T13:06:59.153Z,55.85
2023-05-16T13:09:31.439Z,55.64
2023-05-16T13:12:01.519Z,55.54
2023-05-16T13:14:29.382Z,55.71
2023-05-16T13:16:57.179Z,55.65
2023-05-16T13:19:25.134Z,55.55
2023-05-16T13:21:53.111Z,55.69
2023-05-16T13:24:21.302Z,55.63
2023-05-16T13:26:49.591Z,55.51
2023-05-16T13:29:17.385Z,55.68
2023-05-16T13:31:45.258Z,55.57
2023-05-16T13:34:13.098Z,55.49
2023-05-16T13:36:53.247Z,55.63
2023-05-16T13:39:23.138Z,55.53
2023-05-16T13:41:52.260Z,55.65
2023-05-16T13:44:20.102Z,55.57
2023-05-16T13:46:48.623Z,55.34
2023-05-16T13:49:16.455Z,55.25
2023-05-16T13:51:45.045Z,55.28
2023-05-16T13:54:12.994Z,55.42
2023-05-16T13:56:46.256Z,55.48
2023-05-16T13:59:55.129Z,55.41
2023-05-16T14:02:17.132Z,55.17
2023-05-16T14:04:46.812Z,55.31
2023-05-16T14:07:16.815Z,55.25
2023-05-16T14:09:45.423Z,55.23
2023-05-16T14:12:13.297Z,55.30
2023-05-16T14:14:41.581Z,55.23
2023-05-16T14:17:10.064Z,55.37
2023-05-16T14:19:37.932Z,55.37
2023-05-16T14:22:06.307Z,55.37
2023-05-16T14:24:34.389Z,55.43
2023-05-16T14:27:03.317Z,55.42
2023-05-16T14:29:31.240Z,55.51
2023-05-16T14:31:59.778Z,55.49
2023-05-16T14:34:27.733Z,55.46
2023-05-16T14:36:56.143Z,55.52
2023-05-16T14:39:24.041Z,55.62
2023-05-16T14:41:51.994Z,55.68
2023-05-16T14:44:21.915Z,55.73
2023-05-16T14:46:51.804Z,55.78
2023-05-16T14:49:19.639Z,55.84
2023-05-16T14:51:50.512Z,55.87
2023-05-16T14:54:19.204Z,55.95
2023-05-16T14:56:47.082Z,55.90
2023-05-16T14:59:15.282Z,55.94
2023-05-16T15:01:43.652Z,56.03
2023-05-16T15:04:12.122Z,56.07
2023-05-16T15:06:39.953Z,56.23
2023-05-16T15:09:07.820Z,56.22
2023-05-16T15:11:36.266Z,56.31
2023-05-16T15:14:04.230Z,56.26
2023-05-16T15:16:32.674Z,56.25
2023-05-16T15:19:01.183Z,56.27
2023-05-16T15:21:29.222Z,56.28
2023-05-16T15:23:57.119Z,56.26
2023-05-16T15:26:25.028Z,56.45
2023-05-16T15:28:55.647Z,56.55
2023-05-16T15:31:23.977Z,56.54
2023-05-16T15:33:52.084Z,56.66
2023-05-16T15:36:20.796Z,56.72
2023-05-16T15:38:48.671Z,56.70
2023-05-16T15:41:36.813Z,56.63
2023-05-16T15:44:05.144Z,56.88
2023-05-16T15:46:33.749Z,56.84
2023-05-16T15:49:02.267Z,56.97
2023-05-16T15:51:30.063Z,56.99
2023-05-16T15:53:58.068Z,57.08
2023-05-16T15:56:25.961Z,57.14
2023-05-16T15:58:56.196Z,57.12
2023-05-16T16:01:24.255Z,57.35
2023-05-16T16:03:52.832Z,57.31
2023-05-16T16:06:21.658Z,57.36
2023-05-16T16:08:49.764Z,57.35
2023-05-16T16:11:20.107Z,57.54
2023-05-16T16:13:48.530Z,57.57
2023-05-16T16:16:17.394Z,57.58
2023-05-16T16:18:45.440Z,57.55
2023-05-16T16:21:13.433Z,57.87
2023-05-16T16:23:42.249Z,57.66
2023-05-16T16:26:10.058Z,57.81
2023-05-16T16:28:38.536Z,58.02
2023-05-16T16:31:25.914Z,57.93
2023-05-16T16:33:54.873Z,58.10
2023-05-16T16:36:22.810Z,58.12
2023-05-16T16:38:51.560Z,58.15
2023-05-16T16:41:20.011Z,58.30
2023-05-16T16:43:48.179Z,58.26
2023-05-16T16:46:16.306Z,58.50
2023-05-16T16:48:44.406Z,58.35
2023-05-16T16:51:12.979Z,58.50
2023-05-16T16:54:00.200Z,58.48
2023-05-16T16:56:29.569Z,58.70
2023-05-16T16:58:57.642Z,58.63
2023-05-16T17:01:27.166Z,58.70
2023-05-16T17:03:58.566Z,58.75
2023-05-16T17:06:26.721Z,58.89
2023-05-16T17:08:54.732Z,58.71
2023-05-16T17:11:23.613Z,58.95
2023-05-16T17:13:52.033Z,59.09
2023-05-16T17:16:20.348Z,59.04
2023-05-16T17:18:48.841Z,59.21
2023-05-16T17:21:23.053Z,59.23
2023-05-16T17:23:51.309Z,59.16
2023-05-16T17:26:19.417Z,59.15
2023-05-16T17:28:47.267Z,59.32
2023-05-16T17:31:16.024Z,59.47
2023-05-16T17:33:44.568Z,59.59
2023-05-16T17:36:15.406Z,59.43
2023-05-16T17:38:43.233Z,59.67
2023-05-16T17:41:11.129Z,59.63
2023-05-16T17:43:39.998Z,59.81
2023-05-16T17:46:08.569Z,59.79
2023-05-16T17:48:36.435Z,59.90
2023-05-16T17:51:04.728Z,59.88
2023-05-16T17:53:32.818Z,59.99
2023-05-16T17:56:00.728Z,60.00
2023-05-16T17:59:05.170Z,60.23
2023-05-16T18:01:40.271Z,60.17
2023-05-16T18:04:08.954Z,60.38
2023-05-16T18:06:38.261Z,60.23
2023-05-16T18:09:09.889Z,60.48
2023-05-16T18:11:40.756Z,60.41
2023-05-16T18:14:09.546Z,60.42
2023-05-16T18:16:37.500Z,60.56
2023-05-16T18:19:05.698Z,60.73
2023-05-16T18:21:33.905Z,60.71
2023-05-16T18:24:02.128Z,60.77
2023-05-16T18:26:30.752Z,60.70
2023-05-16T18:28:59.400Z,60.85
2023-05-16T18:31:27.605Z,60.95
2023-05-16T18:33:55.778Z,61.03
2023-05-16T18:36:23.588Z,61.21
2023-05-16T18:38:51.609Z,61.13
2023-05-16T18:41:20.026Z,61.15
2023-05-16T18:43:48.458Z,61.19
2023-05-16T18:46:16.360Z,61.45
2023-05-16T18:48:44.259Z,61.43
2023-05-16T18:51:12.226Z,61.58
2023-05-16T18:53:40.121Z,61.64
2023-05-16T18:56:08.481Z,61.67
2023-05-16T18:58:36.919Z,61.69
2023-05-16T19:01:04.827Z,61.79
2023-05-16T19:03:33.057Z,61.94
2023-05-16T19:06:01.329Z,61.80
2023-05-16T19:08:40.400Z,61.90
2023-05-16T19:11:17.811Z,61.99
2023-05-16T19:13:47.231Z,62.08
2023-05-16T19:16:15.332Z,62.09
2023-05-16T19:18:43.440Z,62.19
2023-05-16T19:21:13.649Z,62.25
2023-05-16T19:23:41.747Z,62.32
2023-05-16T19:26:09.614Z,62.50
2023-05-16T19:28:38.019Z,62.63
2023-05-16T19:31:06.941Z,62.54
2023-05-16T19:33:34.818Z,62.63
2023-05-16T19:36:05.997Z,62.84
2023-05-16T19:38:33.842Z,62.83
2023-05-16T19:41:01.847Z,62.85
2023-05-16T19:43:30.995Z,63.00
2023-05-16T19:45:59.262Z,63.05
2023-05-16T19:48:28.153Z,63.01
2023-05-16T19:50:56.208Z,63.02
2023-05-16T19:53:24.135Z,63.19
2023-05-16T19:55:52.014Z,63.32
2023-05-16T19:58:20.435Z,63.44
2023-05-16T20:00:51.361Z,63.49
2023-05-16T20:03:19.467Z,63.62
2023-05-16T20:05:47.401Z,63.64
2023-05-16T20:08:15.319Z,63.71
2023-05-16T20:10:43.556Z,63.98
2023-05-16T20:13:12.028Z,63.91
2023-05-16T20:15:40.578Z,63.93
2023-05-16T20:18:08.566Z,64.06
2023-05-16T20:20:36.619Z,63.96
2023-05-16T20:23:04.658Z,63.87
2023-05-16T20:25:32.656Z,63.92
2023-05-16T20:28:01.868Z,64.16
2023-05-16T20:30:32.371Z,64.29
2023-05-16T20:33:00.316Z,64.36
2023-05-16T20:35:28.950Z,64.48
2023-05-16T20:37:56.938Z,64.49
2023-05-16T20:40:24.868Z,64.62
2023-05-16T20:42:53.133Z,64.79
2023-05-16T20:45:22.315Z,64.81
2023-05-16T20:47:51.410Z,64.99
2023-05-16T20:50:19.609Z,64.95
2023-05-16T20:52:47.442Z,65.03
2023-05-16T20:55:15.824Z,65.01
2023-05-16T20:57:44.184Z,65.12
2023-05-16T21:00:12.774Z,65.18
2023-05-16T21:02:40.693Z,65.11
2023-05-16T21:05:22.925Z,65.29
2023-05-16T21:07:56.979Z,65.43
2023-05-16T21:10:25.627Z,65.65
2023-05-16T21:12:53.523Z,65.64
2023-05-16T21:15:23.209Z,65.72
2023-05-16T21:17:51.668Z,65.76
2023-05-16T21:20:20.144Z,65.90
2023-05-16T21:22:48.690Z,65.90
2023-05-16T21:25:16.934Z,65.96
2023-05-16T21:27:44.987Z,65.87
2023-05-16T21:30:13.540Z,66.08
2023-05-16T21:32:41.882Z,66.15
2023-05-16T21:35:10.360Z,66.19
2023-05-16T21:37:38.177Z,66.22
2023-05-16T21:40:09.340Z,66.32
2023-05-16T21:42:37.424Z,66.44
2023-05-16T21:45:05.988Z,66.16
2023-05-16T21:47:34.494Z,66.22
2023-05-16T21:50:03.104Z,66.57
2023-05-16T21:52:30.939Z,66.63
2023-05-16T21:54:58.788Z,66.68
2023-05-16T21:57:27.337Z,66.79
2023-05-16T21:59:55.913Z,66.87
2023-05-16T22:02:24.128Z,66.88
2023-05-16T22:04:58.682Z,66.93
2023-05-16T22:07:29.343Z,66.90
2023-05-16T22:09:58.384Z,67.03
2023-05-16T22:12:27.603Z,67.02
2023-05-16T22:14:55.688Z,67.16
2023-05-16T22:17:23.641Z,67.21
2023-05-16T22:19:51.564Z,67.32
2023-05-16T22:22:20.205Z,67.26
2023-05-16T22:24:48.788Z,67.41
2023-05-16T22:27:16.614Z,67.54
2023-05-16T22:29:44.431Z,67.50
2023-05-16T22:32:12.457Z,67.60
2023-05-16T22:34:40.322Z,67.64
2023-05-16T22:37:11.178Z,67.68
2023-05-16T22:39:39.432Z,67.75
2023-05-16T22:42:07.395Z,67.75
2023-05-16T22:44:35.210Z,67.84
2023-05-16T22:47:06.315Z,67.98
2023-05-16T22:49:34.326Z,67.92
2023-05-16T22:52:02.148Z,68.00
2023-05-16T22:54:49.250Z,68.05
2023-05-16T22:57:17.259Z,68.16
2023-05-16T22:59:45.061Z,68.17
2023-05-16T23:02:13.361Z,68.25
2023-05-16T23:04:41.767Z,68.31
2023-05-16T23:07:09.695Z,68.20
2023-05-16T23:09:37.637Z,68.32
2023-05-16T23:12:06.037Z,68.44
2023-05-16T23:14:33.896Z,68.41
2023-05-16T23:17:02.190Z,68.55
2023-05-16T23:19:30.715Z,68.57
2023-05-16T23:21:58.698Z,68.75
2023-05-16T23:24:26.540Z,68.72
2023-05-16T23:26:54.389Z,68.82
2023-05-16T23:29:22.186Z,68.77
2023-05-16T23:31:50.698Z,68.89
2023-05-16T23:34:19.185Z,68.81
2023-05-16T23:36:46.964Z,68.96
2023-05-16T23:42:18.122Z,68.82
2023-05-16T23:44:46.452Z,68.76
2023-05-16T23:47:14.799Z,68.65
2023-05-16T23:49:42.644Z,68.97
2023-05-16T23:52:10.627Z,69.13
2023-05-16T23:54:56.978Z,69.40
2023-05-16T23:57:25.548Z,69.35
2023-05-16T23:59:53.484Z,69.33
